Time;durP1;ratioP1;P1;durP2;ratioP2;P2;SDS_P1;SDS_P2;PMS_P1;PMS_P2;Temp;Humidity;BMP_temperature;BMP_pressure;BME280_temperature;BME280_humidity;BME280_pressure;Samples;Min_cycle;Max_cycle;Signal;HPM_P1;HPM_P2
2022/10/12 00:01:41;;;;;;;78.70;74.00;;;10.70;99.90;;;;;;4946732;28;20514;-58
2022/10/12 00:04:07;;;;;;;78.90;73.80;;;10.60;99.90;;;;;;4948862;28;20397;-57
2022/10/12 00:06:32;;;;;;;75.25;70.53;;;10.60;99.90;;;;;;4947544;28;20686;-55
2022/10/12 00:08:58;;;;;;;74.10;69.63;;;10.50;99.90;;;;;;4949499;28;20409;-59
2022/10/12 00:11:27;;;;;;;81.17;76.30;;;10.60;99.90;;;;;;4951314;28;20470;-58
2022/10/12 00:13:54;;;;;;;78.63;73.75;;;10.60;99.90;;;;;;4952119;28;20378;-57
2022/10/12 00:16:21;;;;;;;72.10;67.43;;;10.60;99.90;;;;;;4951184;28;20935;-55
2022/10/12 00:18:55;;;;;;;68.50;64.43;;;10.60;99.90;;;;;;4948723;28;20504;-57
2022/10/12 00:21:21;;;;;;;74.53;69.63;;;10.60;99.90;;;;;;4948333;28;20488;-56
2022/10/12 00:23:48;;;;;;;72.50;67.90;;;10.60;99.90;;;;;;4948353;28;20469;-58
2022/10/12 00:26:19;;;;;;;75.10;70.30;;;10.60;99.90;;;;;;4948767;28;20398;-57
2022/10/12 00:28:45;;;;;;;72.22;67.68;;;10.70;99.90;;;;;;4949483;28;20414;-56
2022/10/12 00:31:16;;;;;;;69.53;65.40;;;10.60;99.90;;;;;;4952169;28;20424;-58
2022/10/12 00:33:43;;;;;;;67.20;63.05;;;10.70;99.90;;;;;;4954526;28;20492;-58
2022/10/12 00:36:12;;;;;;;63.28;59.35;;;10.70;99.90;;;;;;4954093;28;20469;-57
2022/10/12 00:38:38;;;;;;;70.53;65.57;;;10.70;99.90;;;;;;4954317;28;20390;-57
2022/10/12 00:41:04;;;;;;;66.47;62.10;;;10.60;99.90;;;;;;4953008;28;20402;-59
2022/10/12 00:43:33;;;;;;;68.38;63.97;;;10.70;99.90;;;;;;4954240;28;20393;-59
2022/10/12 00:46:02;;;;;;;72.00;67.78;;;10.60;99.90;;;;;;4953830;28;20737;-59
2022/10/12 00:48:28;;;;;;;79.63;74.97;;;10.70;99.90;;;;;;4955309;28;20429;-58
2022/10/12 00:50:54;;;;;;;72.33;68.03;;;10.70;99.90;;;;;;4953990;28;20398;-56
2022/10/12 00:53:25;;;;;;;75.68;71.07;;;10.60;99.90;;;;;;4952464;29;20526;-58
2022/10/12 00:55:58;;;;;;;87.43;82.35;;;10.60;99.90;;;;;;4954110;28;20397;-57
2022/10/12 00:58:23;;;;;;;95.00;89.37;;;10.60;99.90;;;;;;4953356;28;20393;-55
2022/10/12 01:00:49;;;;;;;97.77;92.17;;;10.50;99.90;;;;;;4951852;28;20456;-56
2022/10/12 01:03:20;;;;;;;93.57;87.97;;;10.50;99.90;;;;;;4951709;28;20474;-56
2022/10/12 01:05:45;;;;;;;104.60;98.57;;;10.50;99.90;;;;;;4952016;28;20541;-55
2022/10/12 01:08:11;;;;;;;93.33;87.93;;;10.50;99.90;;;;;;4951526;28;21121;-58
2022/10/12 01:10:36;;;;;;;97.87;92.37;;;10.50;99.90;;;;;;4952455;28;20444;-58
2022/10/12 01:13:02;;;;;;;90.72;85.35;;;10.50;99.90;;;;;;4953260;28;20404;-59
2022/10/12 01:15:38;;;;;;;98.97;93.38;;;10.50;99.90;;;;;;4953519;28;20783;-57
2022/10/12 01:18:24;;;;;;;111.87;105.37;;;10.50;99.90;;;;;;4953239;28;20430;-55
2022/10/12 01:21:03;;;;;;;93.80;88.43;;;10.40;99.90;;;;;;4951708;28;20480;-59
2022/10/12 01:23:47;;;;;;;101.37;95.47;;;10.40;99.90;;;;;;4952918;28;20402;-52
2022/10/12 01:26:29;;;;;;;102.63;96.67;;;10.40;99.90;;;;;;4954848;28;20404;-58
2022/10/12 01:29:01;;;;;;;110.60;104.13;;;10.40;99.90;;;;;;4955831;28;20413;-58
2022/10/12 01:31:40;;;;;;;107.03;100.70;;;10.40;99.90;;;;;;4954614;28;20663;-58
2022/10/12 01:34:12;;;;;;;104.60;98.10;;;10.40;99.90;;;;;;4954785;28;20558;-57
2022/10/12 01:37:06;;;;;;;98.88;92.88;;;10.40;99.90;;;;;;4953303;28;20390;-58
2022/10/12 01:39:45;;;;;;;94.97;89.13;;;10.40;99.90;;;;;;4953376;29;20437;-58
2022/10/12 01:42:19;;;;;;;102.87;96.87;;;10.40;99.90;;;;;;4953089;28;20398;-59
2022/10/12 01:44:44;;;;;;;98.93;93.43;;;10.40;99.90;;;;;;4954617;28;20677;-59
2022/10/12 01:47:10;;;;;;;88.93;83.70;;;10.50;99.90;;;;;;4954782;28;20386;-58
2022/10/12 01:49:36;;;;;;;90.00;84.80;;;10.40;99.90;;;;;;4955145;28;20437;-59
2022/10/12 01:52:20;;;;;;;88.25;82.97;;;10.40;99.90;;;;;;4956847;28;20386;-56
2022/10/12 01:55:13;;;;;;;69.73;65.63;;;10.40;99.90;;;;;;4956809;28;20382;-57
2022/10/12 01:57:38;;;;;;;73.15;68.63;;;10.50;99.90;;;;;;4955242;28;20530;-57
2022/10/12 02:00:10;;;;;;;65.67;61.67;;;10.50;99.90;;;;;;4954497;28;20429;-56
2022/10/12 02:02:54;;;;;;;69.30;65.30;;;10.50;99.90;;;;;;4954190;28;20425;-54
2022/10/12 02:05:54;;;;;;;66.88;62.88;;;10.50;99.90;;;;;;4952466;28;20402;-58
2022/10/12 02:08:41;;;;;;;77.82;73.18;;;10.60;99.90;;;;;;4952682;28;20500;-56
2022/10/12 02:11:13;;;;;;;65.90;62.10;;;10.60;99.90;;;;;;4955895;28;20393;-58
2022/10/12 02:13:52;;;;;;;56.15;52.58;;;10.70;99.90;;;;;;4954721;28;20451;-59
2022/10/12 02:16:21;;;;;;;43.17;40.47;;;10.60;99.90;;;;;;4953958;28;20943;-58
2022/10/12 02:18:54;;;;;;;71.72;67.35;;;10.70;99.90;;;;;;4953745;28;20418;-55
2022/10/12 02:21:26;;;;;;;69.97;66.00;;;10.70;99.90;;;;;;4952296;28;20398;-54
2022/10/12 02:23:54;;;;;;;70.65;66.65;;;10.70;99.90;;;;;;4952576;28;20393;-59
2022/10/12 02:26:20;;;;;;;61.60;58.05;;;10.70;99.90;;;;;;4950953;28;20394;-59
2022/10/12 02:28:48;;;;;;;59.92;56.28;;;10.70;99.90;;;;;;4950829;28;20492;-59
2022/10/12 02:31:22;;;;;;;60.58;56.90;;;10.80;99.90;;;;;;4951152;28;20485;-56
2022/10/12 02:33:59;;;;;;;64.03;60.17;;;10.70;99.90;;;;;;4952028;28;20799;-58
2022/10/12 02:36:43;;;;;;;66.38;62.60;;;10.80;99.90;;;;;;4953490;28;20489;-58
2022/10/12 02:39:18;;;;;;;73.13;68.88;;;10.80;99.90;;;;;;4953586;28;20401;-57
2022/10/12 02:41:48;;;;;;;71.05;66.75;;;10.80;99.90;;;;;;4957264;28;20393;-56
2022/10/12 02:44:21;;;;;;;67.90;64.10;;;10.80;99.90;;;;;;4956303;28;20512;-58
2022/10/12 02:46:48;;;;;;;66.55;62.58;;;10.80;99.90;;;;;;4956771;28;20394;-56
2022/10/12 02:49:16;;;;;;;67.57;63.72;;;10.80;99.90;;;;;;4955494;28;20426;-57
2022/10/12 02:51:43;;;;;;;61.30;57.58;;;10.80;99.90;;;;;;4953745;28;20461;-57
2022/10/12 02:54:09;;;;;;;60.38;56.72;;;10.80;99.90;;;;;;4952845;28;20798;-58
2022/10/12 02:56:41;;;;;;;61.17;57.28;;;10.70;99.90;;;;;;4953302;28;20406;-57
2022/10/12 02:59:07;;;;;;;60.55;57.15;;;10.70;99.90;;;;;;4952473;28;20740;-58
2022/10/12 03:01:33;;;;;;;62.90;59.17;;;10.70;99.90;;;;;;4953357;28;20444;-58
2022/10/12 03:03:58;;;;;;;57.80;54.50;;;10.80;99.90;;;;;;4951513;28;20492;-57
2022/10/12 03:06:24;;;;;;;62.97;59.37;;;10.80;99.90;;;;;;4953229;28;20408;-55
2022/10/12 03:08:49;;;;;;;56.63;53.42;;;10.80;99.90;;;;;;4954671;28;20418;-59
2022/10/12 03:11:15;;;;;;;60.97;57.07;;;10.80;99.90;;;;;;4953878;28;20485;-56
2022/10/12 03:13:41;;;;;;;59.72;55.90;;;10.80;99.90;;;;;;4957228;28;20617;-56
2022/10/12 03:16:09;;;;;;;56.27;52.77;;;10.70;99.90;;;;;;4952994;28;20706;-57
2022/10/12 03:18:35;;;;;;;59.47;55.80;;;10.80;99.90;;;;;;4953133;28;20405;-58
2022/10/12 03:21:02;;;;;;;62.50;58.93;;;10.80;99.90;;;;;;4954902;28;20408;-61
2022/10/12 03:23:28;;;;;;;58.35;54.85;;;10.80;99.90;;;;;;4954516;28;20394;-57
2022/10/12 03:25:53;;;;;;;56.50;53.10;;;10.80;99.90;;;;;;4954715;28;20469;-57
2022/10/12 03:28:19;;;;;;;54.73;51.43;;;10.90;99.90;;;;;;4954719;28;20409;-57
2022/10/12 03:30:45;;;;;;;59.60;56.15;;;10.90;99.90;;;;;;4954199;28;20468;-56
2022/10/12 03:33:11;;;;;;;52.08;48.83;;;10.90;99.90;;;;;;4953347;28;20402;-57
2022/10/12 03:35:37;;;;;;;53.03;49.85;;;10.90;99.90;;;;;;4953079;28;20731;-56
2022/10/12 03:38:03;;;;;;;53.40;50.08;;;10.90;99.90;;;;;;4951924;28;20819;-55
2022/10/12 03:40:29;;;;;;;51.77;48.67;;;10.90;99.90;;;;;;4952061;28;20467;-54
2022/10/12 03:42:55;;;;;;;50.60;47.70;;;10.90;99.90;;;;;;4952531;28;20401;-59
2022/10/12 03:45:21;;;;;;;52.43;49.43;;;11.00;99.90;;;;;;4950158;28;20406;-59
2022/10/12 03:47:46;;;;;;;58.83;55.13;;;11.00;99.90;;;;;;4950612;28;20410;-54
2022/10/12 03:50:12;;;;;;;63.30;59.60;;;11.00;99.90;;;;;;4950921;28;20582;-58
2022/10/12 03:52:38;;;;;;;68.57;64.37;;;11.00;99.90;;;;;;4950538;28;20765;-56
2022/10/12 03:55:04;;;;;;;69.93;65.83;;;11.00;99.90;;;;;;4949457;28;20515;-57
2022/10/12 03:57:29;;;;;;;78.68;74.10;;;10.90;99.90;;;;;;4950363;28;20391;-58
2022/10/12 03:59:55;;;;;;;89.97;84.57;;;10.90;99.90;;;;;;4950187;28;20416;-57
2022/10/12 04:02:21;;;;;;;88.07;83.07;;;10.90;99.90;;;;;;4947816;28;20441;-59
2022/10/12 04:04:46;;;;;;;98.87;93.23;;;10.90;99.90;;;;;;4949584;28;20817;-55
2022/10/12 04:07:12;;;;;;;102.57;96.57;;;10.90;99.90;;;;;;4952198;28;20405;-55
2022/10/12 04:09:38;;;;;;;101.88;96.07;;;10.90;99.90;;;;;;4952776;28;20785;-57
2022/10/12 04:12:03;;;;;;;97.57;91.80;;;10.90;99.90;;;;;;4953808;28;20394;-57
2022/10/12 04:14:29;;;;;;;97.93;92.23;;;10.90;99.90;;;;;;4954319;28;20393;-59
2022/10/12 04:16:55;;;;;;;91.40;86.00;;;10.90;99.90;;;;;;4951382;28;20600;-58
2022/10/12 04:19:21;;;;;;;95.95;90.35;;;10.90;99.90;;;;;;4950187;28;20622;-55
2022/10/12 04:21:47;;;;;;;87.05;81.95;;;10.90;99.90;;;;;;4948383;28;20461;-57
2022/10/12 04:24:12;;;;;;;87.57;82.47;;;10.90;99.90;;;;;;4949320;28;20495;-55
2022/10/12 04:26:38;;;;;;;86.00;80.87;;;10.90;99.90;;;;;;4948661;28;20818;-58
2022/10/12 04:29:04;;;;;;;87.43;82.10;;;11.00;99.90;;;;;;4949437;28;20577;-58
2022/10/12 04:31:29;;;;;;;83.15;78.35;;;11.00;99.90;;;;;;4950388;28;20471;-58
2022/10/12 04:33:56;;;;;;;86.60;81.40;;;11.00;99.90;;;;;;4951523;28;20423;-58
2022/10/12 04:36:25;;;;;;;78.47;74.03;;;11.00;99.90;;;;;;4950207;28;20421;-56
2022/10/12 04:38:52;;;;;;;83.32;78.35;;;11.00;99.90;;;;;;4951930;28;20538;-57
2022/10/12 04:41:19;;;;;;;83.05;78.25;;;11.00;99.90;;;;;;4952675;28;20390;-58
2022/10/12 04:43:45;;;;;;;80.63;76.03;;;11.00;99.90;;;;;;4952344;28;20393;-58
2022/10/12 04:46:10;;;;;;;78.95;74.20;;;11.00;99.90;;;;;;4951977;28;20390;-55
2022/10/12 04:48:36;;;;;;;75.07;70.30;;;11.00;99.90;;;;;;4952687;28;20507;-57
2022/10/12 04:51:02;;;;;;;75.70;71.07;;;11.00;99.90;;;;;;4953007;28;20472;-58
2022/10/12 04:53:28;;;;;;;75.35;71.05;;;10.90;99.90;;;;;;4954421;28;20398;-57
2022/10/12 04:55:54;;;;;;;68.40;64.07;;;10.90;99.90;;;;;;4952213;28;20460;-56
2022/10/12 04:58:19;;;;;;;71.13;66.67;;;10.90;99.90;;;;;;4950841;28;20846;-58
2022/10/12 05:00:47;;;;;;;74.70;70.32;;;10.80;99.90;;;;;;4947191;28;20453;-57
2022/10/12 05:03:13;;;;;;;72.95;68.35;;;10.80;99.90;;;;;;4945829;28;20470;-54
2022/10/12 05:05:39;;;;;;;75.22;70.65;;;10.80;99.90;;;;;;4944140;28;20405;-58
2022/10/12 05:08:04;;;;;;;69.33;64.83;;;10.70;99.90;;;;;;4944381;28;20856;-55
2022/10/12 05:10:30;;;;;;;72.00;67.27;;;10.70;99.90;;;;;;4944162;28;20673;-57
2022/10/12 05:12:56;;;;;;;69.97;65.57;;;10.70;99.90;;;;;;4945023;28;20765;-53
2022/10/12 05:15:21;;;;;;;74.53;69.95;;;10.60;99.90;;;;;;4946652;28;20488;-57
2022/10/12 05:17:47;;;;;;;74.30;69.50;;;10.60;99.90;;;;;;4948297;28;20405;-55
2022/10/12 05:20:12;;;;;;;81.07;75.77;;;10.60;99.90;;;;;;4948523;28;20414;-58
2022/10/12 05:22:38;;;;;;;79.90;75.10;;;10.50;99.90;;;;;;4950457;28;20730;-56
2022/10/12 05:25:05;;;;;;;82.43;77.57;;;10.50;99.90;;;;;;4949914;28;20408;-57
2022/10/12 05:27:30;;;;;;;83.40;78.40;;;10.50;99.90;;;;;;4949990;28;20462;-56
2022/10/12 05:29:56;;;;;;;79.40;74.67;;;10.40;99.90;;;;;;4947356;28;20516;-56
2022/10/12 05:32:21;;;;;;;86.20;80.95;;;10.40;99.90;;;;;;4947799;28;20481;-57
2022/10/12 05:34:47;;;;;;;82.23;77.20;;;10.40;99.90;;;;;;4948444;28;20420;-56
2022/10/12 05:37:12;;;;;;;79.53;74.53;;;10.40;99.90;;;;;;4947905;28;20701;-58
2022/10/12 05:39:38;;;;;;;80.43;75.32;;;10.40;99.90;;;;;;4949658;28;20417;-58
2022/10/12 05:42:04;;;;;;;79.90;75.13;;;10.40;99.90;;;;;;4949439;28;20386;-56
2022/10/12 05:44:29;;;;;;;77.73;73.03;;;10.40;99.90;;;;;;4948919;28;20833;-57
2022/10/12 05:46:55;;;;;;;79.28;74.32;;;10.40;99.90;;;;;;4950110;28;20485;-58
2022/10/12 05:49:20;;;;;;;76.25;71.70;;;10.40;99.90;;;;;;4949975;28;20515;-57
2022/10/12 05:51:48;;;;;;;81.65;76.53;;;10.40;99.90;;;;;;4949686;29;21131;-57
2022/10/12 05:54:13;;;;;;;73.93;69.43;;;10.40;99.90;;;;;;4946847;28;20850;-56
2022/10/12 05:56:39;;;;;;;79.13;74.32;;;10.40;99.90;;;;;;4947000;28;20406;-58
2022/10/12 05:59:04;;;;;;;87.13;82.17;;;10.40;99.90;;;;;;4946848;28;20465;-57
2022/10/12 06:01:30;;;;;;;82.15;77.38;;;10.50;99.90;;;;;;4945130;28;20591;-58
2022/10/12 06:03:56;;;;;;;85.50;80.32;;;10.60;99.90;;;;;;4946225;28;20409;-58
2022/10/12 06:06:25;;;;;;;87.90;82.78;;;10.60;99.90;;;;;;4943261;28;20652;-58
2022/10/12 06:09:21;;;;;;;86.47;81.28;;;10.70;99.90;;;;;;4942018;28;20410;-57
2022/10/12 06:11:56;;;;;;;85.82;80.75;;;10.70;99.90;;;;;;4937875;28;20541;-57
2022/10/12 06:14:22;;;;;;;88.47;83.28;;;10.70;99.90;;;;;;4937863;28;20394;-56
2022/10/12 06:16:48;;;;;;;90.17;84.97;;;10.80;99.90;;;;;;4941148;28;20976;-59
2022/10/12 06:19:13;;;;;;;84.35;79.47;;;10.70;99.90;;;;;;4941841;29;20409;-57
2022/10/12 06:21:39;;;;;;;75.60;71.15;;;10.80;99.90;;;;;;4941500;28;20893;-59
2022/10/12 06:24:04;;;;;;;73.90;69.70;;;10.80;99.90;;;;;;4942329;28;20401;-59
2022/10/12 06:26:30;;;;;;;75.27;70.87;;;10.80;99.90;;;;;;4942654;28;20753;-56
2022/10/12 06:28:56;;;;;;;83.87;78.90;;;10.80;99.90;;;;;;4940153;28;20409;-56
2022/10/12 06:31:21;;;;;;;74.03;69.50;;;10.80;99.90;;;;;;4939319;28;20664;-58
2022/10/12 06:33:49;;;;;;;77.90;73.13;;;10.80;99.90;;;;;;4937789;28;20798;-58
2022/10/12 06:36:15;;;;;;;77.00;72.22;;;10.80;99.90;;;;;;4935177;28;20433;-56
2022/10/12 06:38:41;;;;;;;81.57;76.60;;;10.80;99.90;;;;;;4934595;28;20707;-58
2022/10/12 06:41:06;;;;;;;96.33;89.97;;;10.70;99.90;;;;;;4934273;28;20413;-55
2022/10/12 06:43:32;;;;;;;98.72;92.45;;;10.70;99.90;;;;;;4935225;28;20705;-53
2022/10/12 06:46:01;;;;;;;103.18;96.97;;;10.60;99.90;;;;;;4932793;28;20386;-55
2022/10/12 06:48:27;;;;;;;98.78;92.95;;;10.50;99.90;;;;;;4936808;28;20829;-59
2022/10/12 06:50:53;;;;;;;106.80;100.03;;;10.50;99.90;;;;;;4934792;28;20405;-57
2022/10/12 06:53:18;;;;;;;105.53;99.63;;;10.50;99.90;;;;;;4934722;28;20732;-60
2022/10/12 06:55:44;;;;;;;107.18;100.53;;;10.50;99.90;;;;;;4933130;28;20408;-57
2022/10/12 06:58:10;;;;;;;95.07;89.35;;;10.60;99.90;;;;;;4933686;28;20774;-56
2022/10/12 07:00:36;;;;;;;94.00;88.50;;;10.60;99.90;;;;;;4932746;28;20627;-57
2022/10/12 07:03:02;;;;;;;95.05;89.45;;;10.50;99.90;;;;;;4931420;28;20673;-59
2022/10/12 07:05:28;;;;;;;100.55;94.60;;;10.50;99.90;;;;;;4930873;28;20461;-57
2022/10/12 07:07:54;;;;;;;93.38;87.72;;;10.60;99.90;;;;;;4932019;28;20440;-56
2022/10/12 07:10:19;;;;;;;96.15;90.38;;;10.50;99.90;;;;;;4933619;28;20424;-58
2022/10/12 07:12:45;;;;;;;89.45;83.43;;;10.60;99.90;;;;;;4936917;28;20468;-57
2022/10/12 07:15:11;;;;;;;89.73;84.43;;;10.60;99.90;;;;;;4939170;28;20425;-57
2022/10/12 07:17:36;;;;;;;93.37;87.83;;;10.60;99.90;;;;;;4937770;28;20401;-57
2022/10/12 07:20:03;;;;;;;100.05;93.45;;;10.60;99.90;;;;;;4936134;28;20409;-59
2022/10/12 07:22:29;;;;;;;87.03;81.78;;;10.60;99.90;;;;;;4933840;28;20440;-54
2022/10/12 07:24:54;;;;;;;85.23;79.80;;;10.70;99.90;;;;;;4934009;28;20734;-56
2022/10/12 07:27:20;;;;;;;87.00;81.67;;;10.60;99.90;;;;;;4934804;28;20507;-58
2022/10/12 07:29:45;;;;;;;79.65;74.72;;;10.60;99.90;;;;;;4932985;28;20496;-58
2022/10/12 07:32:11;;;;;;;71.57;67.17;;;10.60;99.90;;;;;;4930898;28;20433;-59
2022/10/12 07:34:36;;;;;;;89.57;84.00;;;10.70;99.90;;;;;;4929276;28;20402;-58
2022/10/12 07:37:02;;;;;;;85.85;80.50;;;10.70;99.90;;;;;;4929790;28;20809;-59
2022/10/12 07:39:28;;;;;;;95.20;89.47;;;10.70;99.90;;;;;;4931820;28;20790;-57
2022/10/12 07:41:54;;;;;;;86.68;81.07;;;10.80;99.90;;;;;;4934365;28;20411;-58
2022/10/12 07:44:21;;;;;;;87.90;82.03;;;10.70;99.90;;;;;;4932780;28;20858;-57
2022/10/12 07:46:47;;;;;;;84.38;78.60;;;10.70;99.90;;;;;;4934610;28;20495;-56
2022/10/12 07:49:14;;;;;;;76.15;71.68;;;10.70;99.90;;;;;;4930990;28;20940;-59
2022/10/12 07:51:40;;;;;;;85.30;79.40;;;10.70;99.90;;;;;;4931492;28;20397;-56
2022/10/12 07:54:06;;;;;;;85.88;80.10;;;10.80;99.90;;;;;;4931462;28;20398;-56
2022/10/12 07:56:32;;;;;;;84.20;78.65;;;10.90;99.90;;;;;;4930977;28;20666;-55
2022/10/12 07:58:58;;;;;;;92.20;86.55;;;10.90;99.90;;;;;;4927920;28;20397;-58
2022/10/12 08:01:28;;;;;;;86.68;80.90;;;10.90;99.90;;;;;;4929245;28;20645;-58
2022/10/12 08:03:54;;;;;;;88.38;82.43;;;10.90;99.90;;;;;;4927957;28;20527;-58
2022/10/12 08:06:24;;;;;;;78.60;73.95;;;10.90;99.90;;;;;;4930709;28;20787;-57
2022/10/12 08:08:50;;;;;;;86.10;80.17;;;11.00;99.90;;;;;;4929077;28;20430;-58
2022/10/12 08:11:16;;;;;;;91.63;85.87;;;11.00;99.90;;;;;;4927935;28;20397;-56
2022/10/12 08:13:43;;;;;;;73.05;68.25;;;11.10;99.90;;;;;;4929974;28;20468;-59
2022/10/12 08:16:12;;;;;;;82.07;76.53;;;11.10;99.90;;;;;;4928673;28;21033;-57
2022/10/12 08:18:38;;;;;;;75.63;70.32;;;11.20;99.90;;;;;;4930217;28;20410;-57
2022/10/12 08:21:08;;;;;;;82.75;77.25;;;11.20;99.90;;;;;;4932967;28;20547;-58
2022/10/12 08:23:37;;;;;;;76.82;71.45;;;11.30;99.90;;;;;;4932648;28;20398;-57
2022/10/12 08:26:04;;;;;;;82.20;76.85;;;11.40;99.90;;;;;;4935238;28;20670;-58
2022/10/12 08:28:30;;;;;;;74.83;69.90;;;11.50;99.90;;;;;;4931865;28;21003;-56
2022/10/12 08:30:56;;;;;;;82.70;77.15;;;11.50;99.90;;;;;;4931247;28;20441;-59
2022/10/12 08:33:22;;;;;;;78.70;73.43;;;11.60;99.90;;;;;;4937632;28;20754;-57
2022/10/12 08:35:48;;;;;;;79.20;73.70;;;11.70;99.90;;;;;;4942098;28;20429;-57
2022/10/12 08:38:15;;;;;;;77.43;72.13;;;11.70;99.90;;;;;;4944182;28;20409;-58
2022/10/12 08:40:56;;;;;;;76.33;71.50;;;11.70;99.90;;;;;;4942217;28;21007;-57
2022/10/12 08:43:42;;;;;;;79.60;74.32;;;11.80;99.90;;;;;;4945276;28;20397;-56
2022/10/12 08:46:08;;;;;;;83.20;77.50;;;11.80;99.90;;;;;;4947521;28;20397;-58
2022/10/12 08:48:46;;;;;;;73.65;68.20;;;11.90;99.90;;;;;;4947565;28;20744;-57
2022/10/12 08:51:16;;;;;;;71.53;66.40;;;11.90;99.90;;;;;;4947263;28;20394;-59
2022/10/12 08:54:02;;;;;;;80.38;75.20;;;11.90;99.90;;;;;;4948337;28;20398;-58
2022/10/12 08:56:28;;;;;;;80.50;75.18;;;12.00;99.90;;;;;;4948431;28;20389;-57
2022/10/12 08:58:54;;;;;;;84.60;79.05;;;12.00;99.90;;;;;;4946817;28;20539;-56
2022/10/12 09:01:37;;;;;;;90.50;84.15;;;12.10;99.90;;;;;;4946607;28;20398;-56
2022/10/12 09:04:15;;;;;;;91.15;84.50;;;12.20;99.90;;;;;;4942716;28;20859;-54
2022/10/12 09:06:52;;;;;;;90.35;84.25;;;12.10;99.90;;;;;;4942721;28;20510;-59
2022/10/12 09:09:57;;;;;;;84.05;78.25;;;12.10;99.90;;;;;;4935751;28;20670;-58
2022/10/12 09:12:57;;;;;;;82.57;76.97;;;12.10;99.90;;;;;;4938743;28;20393;-59
2022/10/12 09:15:29;;;;;;;91.23;85.30;;;12.20;99.90;;;;;;4939877;28;20396;-57
2022/10/12 09:17:57;;;;;;;68.47;64.13;;;12.20;99.90;;;;;;4941208;28;20852;-59
2022/10/12 09:20:30;;;;;;;75.40;70.38;;;12.30;99.90;;;;;;4944269;28;20420;-56
2022/10/12 09:23:00;;;;;;;87.90;82.00;;;12.40;99.90;;;;;;4945265;28;20390;-59
2022/10/12 09:25:27;;;;;;;80.60;74.97;;;12.50;99.90;;;;;;4944159;28;20377;-56
2022/10/12 09:27:55;;;;;;;79.47;73.82;;;12.50;99.90;;;;;;4946880;28;20508;-59
2022/10/12 09:30:21;;;;;;;79.13;73.72;;;12.50;99.90;;;;;;4946392;28;20440;-59
2022/10/12 09:33:08;;;;;;;83.03;77.57;;;12.60;99.90;;;;;;4946799;28;20829;-59
2022/10/12 09:35:54;;;;;;;73.57;68.60;;;12.60;99.90;;;;;;4943732;28;20390;-58
2022/10/12 09:38:20;;;;;;;59.83;55.60;;;12.60;99.90;;;;;;4947051;28;20390;-59
2022/10/12 09:40:46;;;;;;;62.00;57.90;;;12.70;99.90;;;;;;4947322;28;20408;-58
2022/10/12 09:43:18;;;;;;;59.35;55.03;;;12.80;99.90;;;;;;4945187;28;21130;-59
2022/10/12 09:45:50;;;;;;;65.70;60.92;;;12.70;99.90;;;;;;4947419;28;20404;-59
2022/10/12 09:48:22;;;;;;;62.03;58.17;;;12.80;99.90;;;;;;4947334;28;20528;-59
2022/10/12 09:50:55;;;;;;;52.92;48.95;;;12.90;99.90;;;;;;4948114;29;20401;-57
2022/10/12 09:53:46;;;;;;;51.95;48.33;;;12.90;99.90;;;;;;4948877;28;20460;-58
2022/10/12 09:56:39;;;;;;;55.03;51.08;;;13.00;99.90;;;;;;4950510;28;20480;-58
2022/10/12 09:59:26;;;;;;;55.60;51.65;;;13.00;99.90;;;;;;4949979;28;20448;-59
2022/10/12 10:01:57;;;;;;;51.75;48.15;;;13.10;99.90;;;;;;4948533;28;20429;-59
2022/10/12 10:04:24;;;;;;;50.78;47.45;;;13.20;99.90;;;;;;4945935;28;20413;-58
2022/10/12 10:06:50;;;;;;;67.82;62.97;;;13.40;99.90;;;;;;4947034;28;20812;-59
2022/10/12 10:09:33;;;;;;;82.45;77.18;;;13.60;99.90;;;;;;4947722;28;20477;-56
2022/10/12 10:12:22;;;;;;;94.78;88.20;;;13.90;99.90;;;;;;4947879;28;20394;-57
2022/10/12 10:14:49;;;;;;;84.07;78.82;;;14.10;99.90;;;;;;4946006;28;20493;-59
2022/10/12 10:17:23;;;;;;;93.95;88.57;;;14.30;99.90;;;;;;4946535;28;20473;-59
2022/10/12 10:19:52;;;;;;;96.93;90.88;;;14.70;99.90;;;;;;4946182;28;20402;-56
2022/10/12 10:22:19;;;;;;;94.60;88.72;;;14.90;99.90;;;;;;4945575;28;20488;-57
2022/10/12 10:24:57;;;;;;;95.15;89.32;;;15.00;99.90;;;;;;4946994;28;20429;-59
2022/10/12 10:27:38;;;;;;;91.00;85.20;;;15.10;99.90;;;;;;4946977;28;20390;-60
2022/10/12 10:30:22;;;;;;;87.07;81.50;;;15.30;99.90;;;;;;4946475;28;20386;-57
2022/10/12 10:33:05;;;;;;;87.10;81.88;;;15.10;99.90;;;;;;4946257;28;20561;-57
2022/10/12 10:35:31;;;;;;;92.38;86.57;;;15.20;99.90;;;;;;4946204;28;20500;-57
2022/10/12 10:37:57;;;;;;;86.35;80.88;;;15.40;99.90;;;;;;4945437;28;20541;-59
2022/10/12 10:40:29;;;;;;;94.07;88.43;;;15.50;99.90;;;;;;4943566;28;20393;-56
2022/10/12 10:42:57;;;;;;;120.93;113.47;;;15.80;99.90;;;;;;4938637;28;20740;-58
2022/10/12 10:45:29;;;;;;;101.72;95.63;;;15.90;99.90;;;;;;4938093;28;20513;-60
2022/10/12 10:48:00;;;;;;;111.23;104.33;;;16.00;99.90;;;;;;4939903;28;20461;-59
2022/10/12 10:50:38;;;;;;;116.72;109.90;;;16.20;99.90;;;;;;4935292;28;20709;-59
2022/10/12 10:53:18;;;;;;;115.85;109.07;;;16.50;99.90;;;;;;4936166;28;20397;-59
2022/10/12 10:56:01;;;;;;;109.28;102.97;;;16.50;99.90;;;;;;4936618;28;21001;-56
2022/10/12 10:58:37;;;;;;;105.05;99.00;;;16.60;99.90;;;;;;4932216;28;20398;-56
2022/10/12 11:01:45;;;;;;;115.60;108.68;;;16.90;99.90;;;;;;4933061;28;20394;-58
2022/10/12 11:04:19;;;;;;;91.18;85.45;;;17.00;99.90;;;;;;4935562;29;20408;-58
2022/10/12 11:06:50;;;;;;;80.55;75.68;;;16.90;99.90;;;;;;4935896;28;20397;-57
2022/10/12 11:09:21;;;;;;;82.88;77.93;;;17.00;99.90;;;;;;4935847;28;20647;-58
2022/10/12 11:11:54;;;;;;;92.50;86.97;;;17.10;99.90;;;;;;4935968;28;20386;-57
2022/10/12 11:14:29;;;;;;;88.10;82.77;;;17.10;99.90;;;;;;4939153;28;20421;-56
2022/10/12 11:17:02;;;;;;;94.47;88.80;;;16.90;99.90;;;;;;4940022;28;20476;-57
2022/10/12 11:19:35;;;;;;;98.50;92.65;;;16.90;99.90;;;;;;4941350;28;20409;-58
2022/10/12 11:22:16;;;;;;;91.28;85.78;;;17.10;99.90;;;;;;4942125;28;20398;-58
2022/10/12 11:25:02;;;;;;;91.15;85.60;;;17.30;99.90;;;;;;4942731;28;20683;-57
2022/10/12 11:27:39;;;;;;;91.85;86.50;;;17.50;99.90;;;;;;4946330;28;20390;-57
2022/10/12 11:30:21;;;;;;;93.22;87.38;;;17.60;99.90;;;;;;4943295;28;20915;-57
2022/10/12 11:33:07;;;;;;;95.05;89.68;;;17.60;99.90;;;;;;4942868;28;20440;-56
2022/10/12 11:35:40;;;;;;;94.10;88.88;;;17.60;99.90;;;;;;4943772;28;20508;-57
2022/10/12 11:38:12;;;;;;;96.47;90.82;;;17.90;99.90;;;;;;4943295;28;20400;-57
2022/10/12 11:41:06;;;;;;;97.47;91.80;;;18.00;99.90;;;;;;4942195;28;20398;-57
2022/10/12 11:43:40;;;;;;;101.30;95.40;;;18.30;99.90;;;;;;4941439;29;20397;-56
2022/10/12 11:46:10;;;;;;;102.85;96.95;;;18.50;99.90;;;;;;4943046;29;20671;-57
2022/10/12 11:48:51;;;;;;;103.18;96.85;;;18.00;99.90;;;;;;4937074;28;20433;-58
2022/10/12 11:51:17;;;;;;;96.28;90.38;;;17.70;99.90;;;;;;4938320;28;20445;-56
2022/10/12 11:53:48;;;;;;;97.53;91.70;;;17.50;99.90;;;;;;4938785;28;20413;-57
2022/10/12 11:56:26;;;;;;;98.07;92.32;;;17.80;99.90;;;;;;4938293;28;20802;-57
2022/10/12 11:59:11;;;;;;;95.57;90.05;;;18.20;99.90;;;;;;4935613;28;20489;-57
2022/10/12 12:01:59;;;;;;;99.60;93.70;;;18.30;99.90;;;;;;4934088;28;20686;-58
2022/10/12 12:05:14;;;;;;;98.07;92.32;;;18.30;99.90;;;;;;4933820;28;20512;-57
2022/10/12 12:08:36;;;;;;;110.88;104.20;;;18.80;99.90;;;;;;4939200;28;20457;-58
2022/10/12 12:14:26;;;;;;;112.13;105.55;;;18.60;99.90;;;;;;4946066;29;20374;-57
2022/10/12 12:17:17;;;;;;;109.50;103.17;;;18.70;99.90;;;;;;4940366;28;20473;-58
2022/10/12 12:19:57;;;;;;;116.40;109.78;;;18.80;99.90;;;;;;4944939;28;20404;-57
2022/10/12 12:22:31;;;;;;;110.60;103.97;;;19.20;99.90;;;;;;4944385;28;20436;-58
2022/10/12 12:25:03;;;;;;;120.95;113.70;;;19.50;99.90;;;;;;4941245;28;20397;-57
2022/10/12 12:27:37;;;;;;;119.63;112.75;;;19.60;99.90;;;;;;4944851;28;20886;-58
2022/10/12 12:30:17;;;;;;;115.10;108.47;;;19.80;99.90;;;;;;4948247;28;20397;-54
2022/10/12 12:32:53;;;;;;;121.43;114.28;;;20.20;99.90;;;;;;4946207;28;20464;-58
2022/10/12 12:35:22;;;;;;;115.80;108.90;;;20.20;99.90;;;;;;4946029;28;20504;-56
2022/10/12 12:37:58;;;;;;;122.22;115.03;;;19.90;99.90;;;;;;4946966;28;20430;-56
2022/10/12 12:40:24;;;;;;;119.75;112.43;;;20.50;99.90;;;;;;4945166;28;20686;-56
2022/10/12 12:42:49;;;;;;;115.82;108.72;;;20.80;99.90;;;;;;4942070;28;20963;-56
2022/10/12 12:45:31;;;;;;;115.73;108.93;;;20.90;99.90;;;;;;4939147;28;20404;-56
2022/10/12 12:47:57;;;;;;;115.57;108.97;;;20.70;99.90;;;;;;4939449;28;20488;-56